Lidderdale, IA (51452)

4:29 PM CST on December 04, 2016 (GMT -0600)
Onken Ag Services | | Change Station

Elev 1217 ft 42.15 °N, 94.81 °W | Updated 9 minutes ago

Clear
Clear
37.5 °F
Feels Like 32 °F
N
7.0
Wind Variable Wind from SW
Gusts 11.0 mph

Today
High -- | Low -- °F
--% Chance of Precip.
Yesterday
High -- | Low -- °F
Precip. -- in
Pressure 29.86 in
Visibility 9.0 miles
Clouds Clear
Windchill 32 °F
Dew Point 35 °F
Humidity 92%
Rainfall 0.15 in
Snow Depth Not available.
7:31 AM 4:47 PM
Waxing Crescent, 26% visible
METAR KCIN 042215Z AUTO 22007KT 9SM CLR 03/02 A2986 RMK AO2
Pressure 29.86 in
Visibility 9.0 miles
Clouds Clear
Windchill 32 °F
Dew Point 35 °F
Humidity 92%
Rainfall 0.15 in
Snow Depth Not available.
7:31 AM 4:47 PM
Waxing Crescent, 26% visible
METAR KCIN 042215Z AUTO 22007KT 9SM CLR 03/02 A2986 RMK AO2

10-Day Weather Forecast

Almanac

Astronomy

Dec. 04, 2016 Rise Set
Actual Time
Civil Twilight
Nautical Twilight
Astronomical Twilight
Moon
Length of Visible Light
Length of Day
Tomorrow will be .
, % of the Moon is Illuminated

Today's Extremes

State Highs State Lows

Community

WunderPhotos

Upload Photos

1,955,684 photos uploaded!

WunderBlog® & News

Nearby

Air Quality

  Air Quality AQ Index Pollutant
Not available.

Snow Depth

Station Depth Elevation

Earthquake Activity

City Distance Mag. Time & Date
Minimum magnitude displayed is 2.5.

Coastal Water Temperatures

Place Temperature

Stations

Nearby Weather Stations

Station Location Temp. Windchill Dew Point Humidity Wind Precip. Elev Updated Type
                   

Watches & Warnings

There are currently no watches in effect.